M/V Crosby Hustler — WDA3941 — position and weather

sailwx.info

Track history (hours):
 
Tides and Currents Weather Stations Pressure Air Temp Water Temp Dewpoint Dewpoint Depression Visibility Wind Speed Wind Dir Waves Ship Positions

M/V Crosby Hustler

Owner: CROSBY INLAND MARINE LLC, GOLDEN MEADOW, LA. More information available from US FCC via Universal Licensing System and Coast Guard Vessel Documentation Center.

Last reported at 2015-Aug-01 10:14 UTC. Time now 2015-Aug-01 13:55 UTC.
Position N 29°43' W 095°15'.

Length 18 m; draft 9 m.

Type: Tug. MMSI: 366804030.

Date/timePositionNaut miles runAvg speedWind from/ knotsBaromVisibWave heightAir tempDewpointWater temp
2015-Aug-01 10:14N 29°43' W 095°15'0 0.0
2015-Aug-01 09:05N 29°43' W 095°15'0 0.0
2015-Jul-31 19:06N 29°43' W 095°15'3 5.0
2015-Jul-31 18:28N 29°45' W 095°11'5 5.1
2015-Jul-31 17:33N 29°45' W 095°06'2 0.3
2015-Jul-31 11:27N 29°47' W 095°06'  
2015-Jul-29 02:23N 29°47' W 095°06'2 2.2
2015-Jul-29 01:33N 29°47' W 095°04'2 0.3
2015-Jul-28 19:29N 29°47' W 095°06'1 0.7
2015-Jul-28 17:33N 29°46' W 095°05'5 5.0
2015-Jul-28 16:33N 29°42' W 095°01'5 5.1
2015-Jul-28 15:33N 29°38' W 094°58'5 5.5
2015-Jul-28 14:33N 29°33' W 094°55'6 5.6
2015-Jul-28 13:33N 29°28' W 094°51'  
2015-Jul-25 09:15N 29°27' W 094°51'4 6.3
2015-Jul-25 08:33N 29°31' W 094°53'6 6.4
2015-Jul-25 07:34N 29°36' W 094°57'6 6.2
2015-Jul-25 06:33N 29°42' W 094°60'5 5.4
2015-Jul-25 05:33N 29°45' W 095°04'2 2.2
2015-Jul-25 04:32N 29°47' W 095°04'0 0.0
2015-Jul-25 02:04N 29°48' W 095°04'0 0.0
2015-Jul-25 01:28N 29°48' W 095°04'0 0.0
2015-Jul-25 00:16N 29°48' W 095°04'0 0.0
2015-Jul-24 18:28N 29°48' W 095°04'0 0.0
2015-Jul-24 17:22N 29°48' W 095°04'0 0.0
2015-Jul-24 16:28N 29°48' W 095°04'0 0.0
2015-Jul-24 15:22N 29°48' W 095°04'0 0.1
2015-Jul-24 14:33N 29°47' W 095°04'0 0.1
2015-Jul-24 13:30N 29°48' W 095°04'0 0.0
2015-Jul-24 12:33N 29°48' W 095°04'0 0.0
2015-Jul-24 11:33N 29°48' W 095°04'0 0.0
2015-Jul-24 10:30N 29°48' W 095°04'0 0.0
2015-Jul-24 09:25N 29°48' W 095°04'0 0.0
2015-Jul-24 08:31N 29°48' W 095°04'0 0.0
2015-Jul-24 07:31N 29°48' W 095°04'0 0.0
2015-Jul-24 06:31N 29°48' W 095°04'0 0.0
2015-Jul-24 05:28N 29°48' W 095°04'0 0.0
2015-Jul-24 04:31N 29°48' W 095°04'0 0.0
2015-Jul-24 03:32N 29°48' W 095°04'0 0.0
2015-Jul-24 02:26N 29°48' W 095°04'0 0.0
2015-Jul-24 00:32N 29°48' W 095°04'0 0.0
2015-Jul-23 23:32N 29°48' W 095°04'0 0.0
2015-Jul-23 20:32N 29°48' W 095°04'1 1.2
2015-Jul-23 19:31N 29°47' W 095°05'1 0.1
2015-Jul-23 05:26N 29°47' W 095°06'0 0.0
2015-Jul-23 04:20N 29°47' W 095°06'0 0.0
2015-Jul-23 03:32N 29°47' W 095°06'1 0.2
2015-Jul-22 23:30N 29°46' W 095°06'4 4.3
2015-Jul-22 22:32N 29°45' W 095°11'  
Track history (hours):
 
Tides and Currents Weather Stations Pressure Air Temp Water Temp Dewpoint Dewpoint Depression Visibility Wind Speed Wind Dir Waves Ship Positions

M/V Crosby Hustler

Owner: CROSBY INLAND MARINE LLC, GOLDEN MEADOW, LA. More information available from US FCC via Universal Licensing System and Coast Guard Vessel Documentation Center.

Last reported at 2015-Aug-01 10:14 UTC. Time now 2015-Aug-01 13:55 UTC.
Position N 29°43' W 095°15'.

Length 18 m; draft 9 m.

Type: Tug. MMSI: 366804030.

Date/timePositionNaut miles runAvg speedWind from/ knotsBaromVisibWave heightAir tempDewpointWater temp
2015-Aug-01 10:14N 29°43' W 095°15'0 0.0
2015-Aug-01 09:05N 29°43' W 095°15'0 0.0
2015-Jul-31 19:06N 29°43' W 095°15'3 5.0
2015-Jul-31 18:28N 29°45' W 095°11'5 5.1
2015-Jul-31 17:33N 29°45' W 095°06'2 0.3
2015-Jul-31 11:27N 29°47' W 095°06'  
2015-Jul-29 02:23N 29°47' W 095°06'2 2.2
2015-Jul-29 01:33N 29°47' W 095°04'2 0.3
2015-Jul-28 19:29N 29°47' W 095°06'1 0.7
2015-Jul-28 17:33N 29°46' W 095°05'5 5.0
2015-Jul-28 16:33N 29°42' W 095°01'5 5.1
2015-Jul-28 15:33N 29°38' W 094°58'5 5.5
2015-Jul-28 14:33N 29°33' W 094°55'6 5.6
2015-Jul-28 13:33N 29°28' W 094°51'  
2015-Jul-25 09:15N 29°27' W 094°51'4 6.3
2015-Jul-25 08:33N 29°31' W 094°53'6 6.4
2015-Jul-25 07:34N 29°36' W 094°57'6 6.2
2015-Jul-25 06:33N 29°42' W 094°60'5 5.4
2015-Jul-25 05:33N 29°45' W 095°04'2 2.2
2015-Jul-25 04:32N 29°47' W 095°04'0 0.0
2015-Jul-25 02:04N 29°48' W 095°04'0 0.0
2015-Jul-25 01:28N 29°48' W 095°04'0 0.0
2015-Jul-25 00:16N 29°48' W 095°04'0 0.0
2015-Jul-24 18:28N 29°48' W 095°04'0 0.0
2015-Jul-24 17:22N 29°48' W 095°04'0 0.0
2015-Jul-24 16:28N 29°48' W 095°04'0 0.0
2015-Jul-24 15:22N 29°48' W 095°04'0 0.1
2015-Jul-24 14:33N 29°47' W 095°04'0 0.1
2015-Jul-24 13:30N 29°48' W 095°04'0 0.0
2015-Jul-24 12:33N 29°48' W 095°04'0 0.0
2015-Jul-24 11:33N 29°48' W 095°04'0 0.0
2015-Jul-24 10:30N 29°48' W 095°04'0 0.0
2015-Jul-24 09:25N 29°48' W 095°04'0 0.0
2015-Jul-24 08:31N 29°48' W 095°04'0 0.0
2015-Jul-24 07:31N 29°48' W 095°04'0 0.0
2015-Jul-24 06:31N 29°48' W 095°04'0 0.0
2015-Jul-24 05:28N 29°48' W 095°04'0 0.0
2015-Jul-24 04:31N 29°48' W 095°04'0 0.0
2015-Jul-24 03:32N 29°48' W 095°04'0 0.0
2015-Jul-24 02:26N 29°48' W 095°04'0 0.0
2015-Jul-24 00:32N 29°48' W 095°04'0 0.0
2015-Jul-23 23:32N 29°48' W 095°04'0 0.0
2015-Jul-23 20:32N 29°48' W 095°04'1 1.2
2015-Jul-23 19:31N 29°47' W 095°05'1 0.1
2015-Jul-23 05:26N 29°47' W 095°06'0 0.0
2015-Jul-23 04:20N 29°47' W 095°06'0 0.0
2015-Jul-23 03:32N 29°47' W 095°06'1 0.2
2015-Jul-22 23:30N 29°46' W 095°06'4 4.3
2015-Jul-22 22:32N 29°45' W 095°11'  

Dump ship's entire track history